Aktuální počasí v Česku a ve světě - METAR

Seznam meteostanic umístěných nejčasteji na letišti v ČR a ve světě

Vyhledat místa podle abecedy:
A B C D E F G H I J K L M N O P Q R S T U V W X Y Z

Filtrovat:

ID stanice:
a/nebo
Název místa (fulltext):
 
Místo (ID)Naposledy načteno 
Verona (LIPX) 26.02.2021 09:50 UTC Zobrazit METAR
LIPX 260950Z VRB02KT CAVOK 14/03 Q1029
Vienna (LOWW) 26.02.2021 09:50 UTC Zobrazit METAR
LOWW 260950Z 13003KT 100V170 CAVOK 10/07 Q1028 NOSIG
Vientiane (VLVT) 26.02.2021 10:00 UTC Zobrazit METAR
VLVT 261000Z 36004KT 8000 NSC 35/13 Q1002 NOSIG
Vieuxfort (TLPL) 26.02.2021 10:00 UTC Zobrazit METAR
TLPL 261000Z 06016KT 9999 -SHRA BKN020 26/22 Q1014 NOSIG
Vilnius (EYVI) 26.02.2021 09:50 UTC Zobrazit METAR
EYVI 260950Z 26015KT 9999 BKN017 05/02 Q1016 R19/2///95 NOSIG
Vitebsk (UMII) Zatím nenačteno  
Volgograd (URWW) Zatím nenačteno  
Voronezh (UUOO) Zatím nenačteno  
Wake Island (PWAK) 26.02.2021 09:53 UTC Zobrazit METAR
PWAK 260953Z AUTO 01017KT 9999 BKN025 OVC038 26/21 A2998 RMK AO2 CIG 025V038 BKN V FEW SLP158
Warsaw (EPWA) 26.02.2021 10:00 UTC Zobrazit METAR
EPWA 261000Z 29008KT 9999 SCT043 10/05 Q1024 NOSIG
Washington (KIAD) 26.02.2021 09:52 UTC Zobrazit METAR
KIAD 260952Z 00000KT 10SM OVC100 02/M03 A3037 RMK AO2 SLP286 T00171028
Wellington (NZWN) 26.02.2021 03:00 UTC Zobrazit METAR
NZWN 260300Z AUTO 21006KT 3000 HZ BKN002/// 18/16 Q1020 BECMG 9999 NSW FEW002
Windhoek (FYWH) 26.02.2021 09:00 UTC Zobrazit METAR
FYWH 260900Z 13012KT 9999 SCT030 27/13 Q1021 NOSIG
Wroclaw (EPWR) 26.02.2021 10:00 UTC Zobrazit METAR
EPWR 261000Z 33012KT CAVOK 12/05 Q1026
Yamoussoukro (DIYO) 26.02.2021 10:00 UTC Zobrazit METAR
DIYO 261000Z 26006KT 8000 BKN011 28/23 Q1013 NOSIG
Yangon (VYYY) 26.02.2021 10:00 UTC Zobrazit METAR
VYYY 261000Z 27005KT 6000 HZ NSC 34/22 Q1005
Yaounde (FKYS) 26.02.2021 10:00 UTC Zobrazit METAR
FKYS 261000Z 26006KT 210V330 6000 BKN016 27/21 Q1016 NOSIG
Yerevan (UGEE) Zatím nenačteno  
Zadar (LDZD) 26.02.2021 10:00 UTC Zobrazit METAR
LDZD 261000Z 30005KT 260V340 CAVOK 18/07 Q1028 NOSIG
Zagreb (LDZA) 26.02.2021 10:00 UTC Zobrazit METAR
LDZA 261000Z 00000KT 6000 NSC 13/05 Q1028 NOSIG
Zaragoza (LEZG) 26.02.2021 10:00 UTC Zobrazit METAR
LEZG 261000Z 29004KT 250V330 9000 BKN035 11/08 Q1032
Zhezkazgan (UAKD) Zatím nenačteno  
Zurich (LSZH) 26.02.2021 09:50 UTC Zobrazit METAR
LSZH 260950Z VRB01KT CAVOK 09/02 Q1031 NOSIG
Předchozí 1 ... 7 8 9
Reklama

Reklama


Počasí na Váš email

Emaily jsou bez reklamy a bez spamu



Odhlásit newsletter


Další české internetové stránky (nejen) o počasí najdete v katalogu TOPlist - weby o počasí nebo vyhledejte na internetu, co jste tu na 🌞 Slunečnu ⛅ zatím nenašli:
⭐ Přidat Slunečno.cz do oblíbených | 🏠 Nastavit Slunečno.cz jako HOMEPAGE

⬆️ Posunout stránku nahoru ⬆️
Reklama